sensor_id;sensor_type;location;lat;lon;timestamp;pressure;altitude;pressure_sealevel;temperature;humidity
39243;BME280;29823;47.404;8.566;2023-02-19T00:01:46;97239.78;;;7.85;100.00
39243;BME280;29823;47.404;8.566;2023-02-19T00:04:15;97235.97;;;8.01;100.00
39243;BME280;29823;47.404;8.566;2023-02-19T00:06:44;97235.91;;;7.94;100.00
39243;BME280;29823;47.404;8.566;2023-02-19T00:09:14;97225.28;;;8.41;100.00
39243;BME280;29823;47.404;8.566;2023-02-19T00:11:43;97233.22;;;8.22;100.00
39243;BME280;29823;47.404;8.566;2023-02-19T00:14:14;97234.91;;;8.29;100.00
39243;BME280;29823;47.404;8.566;2023-02-19T00:16:42;97235.88;;;8.22;100.00
39243;BME280;29823;47.404;8.566;2023-02-19T00:19:13;97239.69;;;8.13;100.00
39243;BME280;29823;47.404;8.566;2023-02-19T00:21:41;97227.53;;;7.97;100.00
39243;BME280;29823;47.404;8.566;2023-02-19T00:24:10;97240.22;;;7.89;100.00
39243;BME280;29823;47.404;8.566;2023-02-19T00:26:39;97239.78;;;7.92;100.00
39243;BME280;29823;47.404;8.566;2023-02-19T00:29:10;97236.47;;;7.83;100.00
39243;BME280;29823;47.404;8.566;2023-02-19T00:31:38;97236.06;;;7.80;100.00
39243;BME280;29823;47.404;8.566;2023-02-19T00:34:06;97232.59;;;7.79;100.00
39243;BME280;29823;47.404;8.566;2023-02-19T00:36:38;97237.13;;;7.85;100.00
39243;BME280;29823;47.404;8.566;2023-02-19T00:39:07;97233.44;;;7.86;100.00
39243;BME280;29823;47.404;8.566;2023-02-19T00:41:35;97222.16;;;7.84;100.00
39243;BME280;29823;47.404;8.566;2023-02-19T00:44:05;97223.72;;;7.72;100.00
39243;BME280;29823;47.404;8.566;2023-02-19T00:46:34;97223.69;;;7.66;100.00
39243;BME280;29823;47.404;8.566;2023-02-19T00:49:03;97221.78;;;7.53;100.00
39243;BME280;29823;47.404;8.566;2023-02-19T00:51:33;97229.59;;;7.61;100.00
39243;BME280;29823;47.404;8.566;2023-02-19T00:54:03;97220.94;;;7.53;100.00
39243;BME280;29823;47.404;8.566;2023-02-19T00:56:32;97220.91;;;7.46;100.00
39243;BME280;29823;47.404;8.566;2023-02-19T00:59:00;97228.66;;;7.41;100.00
39243;BME280;29823;47.404;8.566;2023-02-19T01:01:27;97213.44;;;7.35;100.00
39243;BME280;29823;47.404;8.566;2023-02-19T01:03:56;97222.44;;;7.34;100.00
39243;BME280;29823;47.404;8.566;2023-02-19T01:06:23;97221.88;;;7.39;100.00
39243;BME280;29823;47.404;8.566;2023-02-19T01:08:52;97223.09;;;7.36;100.00
39243;BME280;29823;47.404;8.566;2023-02-19T01:11:21;97222.84;;;7.31;100.00
39243;BME280;29823;47.404;8.566;2023-02-19T01:13:49;97212.06;;;7.39;100.00
39243;BME280;29823;47.404;8.566;2023-02-19T01:16:19;97214.94;;;7.44;100.00
39243;BME280;29823;47.404;8.566;2023-02-19T01:18:47;97219.78;;;7.34;100.00
39243;BME280;29823;47.404;8.566;2023-02-19T01:21:17;97209.94;;;7.28;100.00
39243;BME280;29823;47.404;8.566;2023-02-19T01:23:45;97200.91;;;7.23;100.00
39243;BME280;29823;47.404;8.566;2023-02-19T01:26:15;97210.03;;;7.41;100.00
39243;BME280;29823;47.404;8.566;2023-02-19T01:28:45;97208.13;;;7.63;100.00
39243;BME280;29823;47.404;8.566;2023-02-19T01:31:15;97201.56;;;7.65;100.00
39243;BME280;29823;47.404;8.566;2023-02-19T01:33:44;97198.63;;;7.54;100.00
39243;BME280;29823;47.404;8.566;2023-02-19T01:36:13;97214.56;;;7.47;100.00
39243;BME280;29823;47.404;8.566;2023-02-19T01:38:41;97210.84;;;7.42;100.00
39243;BME280;29823;47.404;8.566;2023-02-19T01:41:11;97209.63;;;7.44;100.00
39243;BME280;29823;47.404;8.566;2023-02-19T01:43:58;97210.94;;;7.27;100.00
39243;BME280;29823;47.404;8.566;2023-02-19T01:46:27;97201.69;;;7.23;100.00
39243;BME280;29823;47.404;8.566;2023-02-19T01:48:57;97217.28;;;7.26;100.00
39243;BME280;29823;47.404;8.566;2023-02-19T01:51:26;97213.31;;;7.16;100.00
39243;BME280;29823;47.404;8.566;2023-02-19T01:53:58;97210.22;;;7.12;100.00
39243;BME280;29823;47.404;8.566;2023-02-19T01:56:27;97207.56;;;7.12;100.00
39243;BME280;29823;47.404;8.566;2023-02-19T01:58:59;97207.63;;;7.19;100.00
39243;BME280;29823;47.404;8.566;2023-02-19T02:01:27;97210.22;;;7.12;100.00
39243;BME280;29823;47.404;8.566;2023-02-19T02:03:55;97207.72;;;7.04;100.00
39243;BME280;29823;47.404;8.566;2023-02-19T02:06:26;97200.34;;;7.06;100.00
39243;BME280;29823;47.404;8.566;2023-02-19T02:08:57;97195.81;;;7.00;100.00
39243;BME280;29823;47.404;8.566;2023-02-19T02:11:45;97178.03;;;7.01;100.00
39243;BME280;29823;47.404;8.566;2023-02-19T02:14:16;97166.38;;;7.02;100.00
39243;BME280;29823;47.404;8.566;2023-02-19T02:16:53;97160.72;;;7.11;100.00
39243;BME280;29823;47.404;8.566;2023-02-19T02:19:31;97155.03;;;7.14;100.00
39243;BME280;29823;47.404;8.566;2023-02-19T02:22:10;97156.25;;;7.18;100.00
39243;BME280;29823;47.404;8.566;2023-02-19T02:25:17;97155.75;;;7.08;100.00
39243;BME280;29823;47.404;8.566;2023-02-19T02:27:56;97157.31;;;6.96;100.00
39243;BME280;29823;47.404;8.566;2023-02-19T02:30:36;97157.84;;;6.85;100.00
39243;BME280;29823;47.404;8.566;2023-02-19T02:33:11;97143.69;;;6.78;100.00
39243;BME280;29823;47.404;8.566;2023-02-19T02:35:44;97141.22;;;6.77;100.00
39243;BME280;29823;47.404;8.566;2023-02-19T02:38:14;97143.19;;;6.68;100.00
39243;BME280;29823;47.404;8.566;2023-02-19T02:40:43;97139.91;;;6.66;100.00
39243;BME280;29823;47.404;8.566;2023-02-19T02:43:12;97135.97;;;6.83;100.00
39243;BME280;29823;47.404;8.566;2023-02-19T02:45:41;97139.28;;;6.64;100.00
39243;BME280;29823;47.404;8.566;2023-02-19T02:48:17;97130.44;;;6.57;100.00
39243;BME280;29823;47.404;8.566;2023-02-19T02:50:50;97135.81;;;6.64;100.00
39243;BME280;29823;47.404;8.566;2023-02-19T02:53:22;97132.31;;;6.63;100.00
39243;BME280;29823;47.404;8.566;2023-02-19T02:56:10;97139.84;;;6.60;100.00
39243;BME280;29823;47.404;8.566;2023-02-19T02:58:39;97140.47;;;6.62;100.00
39243;BME280;29823;47.404;8.566;2023-02-19T03:01:11;97132.91;;;6.59;100.00
39243;BME280;29823;47.404;8.566;2023-02-19T03:04:03;97138.91;;;6.67;100.00
39243;BME280;29823;47.404;8.566;2023-02-19T03:06:34;97142.00;;;6.71;100.00
39243;BME280;29823;47.404;8.566;2023-02-19T03:09:09;97144.03;;;6.69;100.00
39243;BME280;29823;47.404;8.566;2023-02-19T03:11:40;97149.34;;;6.69;100.00
39243;BME280;29823;47.404;8.566;2023-02-19T03:14:30;97142.75;;;6.86;100.00
39243;BME280;29823;47.404;8.566;2023-02-19T03:17:21;97130.00;;;6.81;100.00
39243;BME280;29823;47.404;8.566;2023-02-19T03:20:11;97150.56;;;6.94;100.00
39243;BME280;29823;47.404;8.566;2023-02-19T03:22:40;97142.19;;;6.97;100.00
39243;BME280;29823;47.404;8.566;2023-02-19T03:25:11;97149.59;;;7.01;100.00
39243;BME280;29823;47.404;8.566;2023-02-19T03:27:59;97157.19;;;7.04;100.00
39243;BME280;29823;47.404;8.566;2023-02-19T03:30:30;97165.41;;;7.09;100.00
39243;BME280;29823;47.404;8.566;2023-02-19T03:33:03;97159.06;;;7.10;100.00
39243;BME280;29823;47.404;8.566;2023-02-19T03:35:35;97159.06;;;7.10;100.00
39243;BME280;29823;47.404;8.566;2023-02-19T03:38:09;97159.69;;;7.12;100.00
39243;BME280;29823;47.404;8.566;2023-02-19T03:40:51;97151.47;;;7.07;100.00
39243;BME280;29823;47.404;8.566;2023-02-19T03:43:26;97150.06;;;7.11;100.00
39243;BME280;29823;47.404;8.566;2023-02-19T03:46:06;97154.25;;;7.20;100.00
39243;BME280;29823;47.404;8.566;2023-02-19T03:48:40;97144.06;;;7.30;100.00
39243;BME280;29823;47.404;8.566;2023-02-19T03:51:23;97146.28;;;7.27;100.00
39243;BME280;29823;47.404;8.566;2023-02-19T03:53:57;97174.44;;;7.42;100.00
39243;BME280;29823;47.404;8.566;2023-02-19T03:56:29;97186.63;;;7.64;100.00
39243;BME280;29823;47.404;8.566;2023-02-19T03:59:04;97187.09;;;7.74;100.00
39243;BME280;29823;47.404;8.566;2023-02-19T04:01:38;97193.31;;;7.94;100.00
39243;BME280;29823;47.404;8.566;2023-02-19T04:04:14;97193.97;;;8.03;100.00
39243;BME280;29823;47.404;8.566;2023-02-19T04:06:44;97185.00;;;8.17;100.00
39243;BME280;29823;47.404;8.566;2023-02-19T04:09:13;97167.78;;;8.06;100.00
39243;BME280;29823;47.404;8.566;2023-02-19T04:11:42;97169.63;;;8.06;100.00
39243;BME280;29823;47.404;8.566;2023-02-19T04:14:15;97163.66;;;7.97;100.00
39243;BME280;29823;47.404;8.566;2023-02-19T04:16:49;97154.00;;;7.96;100.00
39243;BME280;29823;47.404;8.566;2023-02-19T04:19:20;97133.25;;;7.79;100.00
39243;BME280;29823;47.404;8.566;2023-02-19T04:21:52;97147.41;;;7.79;100.00
39243;BME280;29823;47.404;8.566;2023-02-19T04:24:22;97144.31;;;7.82;100.00
39243;BME280;29823;47.404;8.566;2023-02-19T04:26:52;97142.50;;;7.89;100.00
39243;BME280;29823;47.404;8.566;2023-02-19T04:29:20;97098.44;;;7.74;100.00
39243;BME280;29823;47.404;8.566;2023-02-19T04:31:48;97133.72;;;7.89;100.00
39243;BME280;29823;47.404;8.566;2023-02-19T04:34:16;97152.31;;;7.82;100.00
39243;BME280;29823;47.404;8.566;2023-02-19T04:36:45;97152.38;;;7.95;100.00
39243;BME280;29823;47.404;8.566;2023-02-19T04:39:13;97136.81;;;8.05;100.00
39243;BME280;29823;47.404;8.566;2023-02-19T04:41:41;97122.88;;;7.90;100.00
39243;BME280;29823;47.404;8.566;2023-02-19T04:44:09;97119.56;;;7.82;100.00
39243;BME280;29823;47.404;8.566;2023-02-19T04:46:38;97132.50;;;7.91;100.00
39243;BME280;29823;47.404;8.566;2023-02-19T04:49:08;97138.47;;;8.00;100.00
39243;BME280;29823;47.404;8.566;2023-02-19T04:51:37;97131.84;;;7.83;100.00
39243;BME280;29823;47.404;8.566;2023-02-19T04:54:06;97134.69;;;7.81;100.00
39243;BME280;29823;47.404;8.566;2023-02-19T04:56:34;97151.50;;;7.88;100.00
39243;BME280;29823;47.404;8.566;2023-02-19T04:59:02;97161.13;;;7.89;100.00
39243;BME280;29823;47.404;8.566;2023-02-19T05:01:29;97153.56;;;7.86;100.00
39243;BME280;29823;47.404;8.566;2023-02-19T05:03:57;97147.41;;;7.79;100.00
39243;BME280;29823;47.404;8.566;2023-02-19T05:06:25;97157.59;;;7.76;100.00
39243;BME280;29823;47.404;8.566;2023-02-19T05:08:53;97157.97;;;7.66;100.00
39243;BME280;29823;47.404;8.566;2023-02-19T05:11:23;97168.47;;;7.74;100.00
39243;BME280;29823;47.404;8.566;2023-02-19T05:13:50;97169.22;;;7.62;100.00
39243;BME280;29823;47.404;8.566;2023-02-19T05:16:18;97159.38;;;7.62;100.00
39243;BME280;29823;47.404;8.566;2023-02-19T05:18:46;97157.34;;;7.64;100.00
39243;BME280;29823;47.404;8.566;2023-02-19T05:21:14;97160.03;;;7.64;100.00
39243;BME280;29823;47.404;8.566;2023-02-19T05:23:42;97170.84;;;7.63;100.00
39243;BME280;29823;47.404;8.566;2023-02-19T05:26:13;97162.63;;;7.58;100.00
39243;BME280;29823;47.404;8.566;2023-02-19T05:28:44;97178.66;;;7.64;100.00
39243;BME280;29823;47.404;8.566;2023-02-19T05:31:12;97170.28;;;7.74;100.00
39243;BME280;29823;47.404;8.566;2023-02-19T05:33:40;97163.53;;;7.71;100.00
39243;BME280;29823;47.404;8.566;2023-02-19T05:36:11;97162.72;;;7.71;100.00
39243;BME280;29823;47.404;8.566;2023-02-19T05:38:40;97153.16;;;7.83;100.00
39243;BME280;29823;47.404;8.566;2023-02-19T05:41:10;97141.44;;;7.77;100.00
39243;BME280;29823;47.404;8.566;2023-02-19T05:43:39;97158.66;;;7.81;100.00
39243;BME280;29823;47.404;8.566;2023-02-19T05:46:09;97158.69;;;7.94;100.00
39243;BME280;29823;47.404;8.566;2023-02-19T05:48:37;97165.28;;;7.98;100.00
39243;BME280;29823;47.404;8.566;2023-02-19T05:51:06;97160.59;;;8.00;100.00
39243;BME280;29823;47.404;8.566;2023-02-19T05:53:35;97149.94;;;8.00;100.00
39243;BME280;29823;47.404;8.566;2023-02-19T05:56:05;97155.84;;;7.96;100.00
39243;BME280;29823;47.404;8.566;2023-02-19T05:58:46;97169.56;;;7.99;100.00
39243;BME280;29823;47.404;8.566;2023-02-19T06:01:16;97187.22;;;8.07;100.00
39243;BME280;29823;47.404;8.566;2023-02-19T06:03:44;97180.69;;;8.09;100.00
39243;BME280;29823;47.404;8.566;2023-02-19T06:06:12;97183.78;;;8.19;100.00
39243;BME280;29823;47.404;8.566;2023-02-19T06:08:40;97187.56;;;8.25;100.00
39243;BME280;29823;47.404;8.566;2023-02-19T06:11:08;97187.53;;;8.31;100.00
39243;BME280;29823;47.404;8.566;2023-02-19T06:13:37;97201.06;;;8.23;100.00
39243;BME280;29823;47.404;8.566;2023-02-19T06:16:05;97207.41;;;8.29;100.00
39243;BME280;29823;47.404;8.566;2023-02-19T06:18:36;97213.38;;;8.31;100.00
39243;BME280;29823;47.404;8.566;2023-02-19T06:21:07;97226.91;;;8.29;100.00
39243;BME280;29823;47.404;8.566;2023-02-19T06:23:36;97219.09;;;8.28;100.00
39243;BME280;29823;47.404;8.566;2023-02-19T06:26:09;97216.63;;;8.26;100.00
39243;BME280;29823;47.404;8.566;2023-02-19T06:28:37;97212.16;;;8.33;100.00
39243;BME280;29823;47.404;8.566;2023-02-19T06:31:06;97221.78;;;8.34;100.00
39243;BME280;29823;47.404;8.566;2023-02-19T06:33:37;97218.72;;;8.31;100.00
39243;BME280;29823;47.404;8.566;2023-02-19T06:36:09;97232.22;;;8.29;100.00
39243;BME280;29823;47.404;8.566;2023-02-19T06:38:37;97226.25;;;8.21;100.00
39243;BME280;29823;47.404;8.566;2023-02-19T06:41:06;97244.09;;;8.27;100.00
39243;BME280;29823;47.404;8.566;2023-02-19T06:43:35;97241.84;;;8.30;100.00
39243;BME280;29823;47.404;8.566;2023-02-19T06:46:05;97246.38;;;8.30;100.00
39243;BME280;29823;47.404;8.566;2023-02-19T06:48:33;97244.28;;;8.25;100.00
39243;BME280;29823;47.404;8.566;2023-02-19T06:51:03;97247.78;;;8.26;100.00
39243;BME280;29823;47.404;8.566;2023-02-19T06:53:31;97252.28;;;8.25;100.00
39243;BME280;29823;47.404;8.566;2023-02-19T06:56:00;97252.69;;;8.22;100.00
39243;BME280;29823;47.404;8.566;2023-02-19T06:58:29;97264.63;;;8.33;100.00
39243;BME280;29823;47.404;8.566;2023-02-19T07:00:57;97262.97;;;8.32;100.00
39243;BME280;29823;47.404;8.566;2023-02-19T07:03:25;97271.81;;;8.39;100.00
39243;BME280;29823;47.404;8.566;2023-02-19T07:05:53;97276.38;;;8.51;100.00
39243;BME280;29823;47.404;8.566;2023-02-19T07:08:22;97289.88;;;8.43;100.00
39243;BME280;29823;47.404;8.566;2023-02-19T07:10:53;97290.53;;;8.58;100.00
39243;BME280;29823;47.404;8.566;2023-02-19T07:13:22;97280.28;;;8.62;100.00
39243;BME280;29823;47.404;8.566;2023-02-19T07:15:50;97294.69;;;8.67;100.00
39243;BME280;29823;47.404;8.566;2023-02-19T07:18:18;97293.22;;;8.65;100.00
39243;BME280;29823;47.404;8.566;2023-02-19T07:20:45;97300.84;;;8.74;100.00
39243;BME280;29823;47.404;8.566;2023-02-19T07:23:13;97300.47;;;8.77;100.00
39243;BME280;29823;47.404;8.566;2023-02-19T07:25:42;97308.16;;;8.59;100.00
39243;BME280;29823;47.404;8.566;2023-02-19T07:28:10;97243.50;;;8.31;100.00
39243;BME280;29823;47.404;8.566;2023-02-19T07:30:38;97313.16;;;8.69;100.00
39243;BME280;29823;47.404;8.566;2023-02-19T07:33:06;97316.69;;;8.82;100.00
39243;BME280;29823;47.404;8.566;2023-02-19T07:35:36;97319.16;;;8.90;100.00
39243;BME280;29823;47.404;8.566;2023-02-19T07:38:03;97332.75;;;9.08;100.00
39243;BME280;29823;47.404;8.566;2023-02-19T07:40:31;97329.06;;;9.09;100.00
39243;BME280;29823;47.404;8.566;2023-02-19T07:43:01;97338.31;;;9.20;100.00
39243;BME280;29823;47.404;8.566;2023-02-19T07:45:29;97335.03;;;9.24;100.00
39243;BME280;29823;47.404;8.566;2023-02-19T07:47:57;97332.97;;;9.26;100.00
39243;BME280;29823;47.404;8.566;2023-02-19T07:50:24;97343.66;;;9.39;100.00
39243;BME280;29823;47.404;8.566;2023-02-19T07:52:52;97342.25;;;9.43;100.00
39243;BME280;29823;47.404;8.566;2023-02-19T07:55:20;97344.50;;;9.59;100.00
39243;BME280;29823;47.404;8.566;2023-02-19T07:57:48;97358.09;;;9.71;100.00
39243;BME280;29823;47.404;8.566;2023-02-19T08:00:17;97352.72;;;9.77;100.00
39243;BME280;29823;47.404;8.566;2023-02-19T08:02:45;97353.13;;;9.87;100.00
39243;BME280;29823;47.404;8.566;2023-02-19T08:05:30;97352.53;;;10.05;100.00
39243;BME280;29823;47.404;8.566;2023-02-19T08:07:58;97363.03;;;10.06;100.00
39243;BME280;29823;47.404;8.566;2023-02-19T08:10:26;97359.94;;;10.16;100.00
39243;BME280;29823;47.404;8.566;2023-02-19T08:13:13;97369.16;;;10.33;100.00
39243;BME280;29823;47.404;8.566;2023-02-19T08:15:54;97364.78;;;10.45;100.00
39243;BME280;29823;47.404;8.566;2023-02-19T08:18:40;97360.47;;;10.50;100.00
39243;BME280;29823;47.404;8.566;2023-02-19T08:21:08;97370.72;;;10.53;100.00
39243;BME280;29823;47.404;8.566;2023-02-19T08:23:37;97373.78;;;10.63;100.00
39243;BME280;29823;47.404;8.566;2023-02-19T08:26:05;97371.16;;;10.57;100.00
39243;BME280;29823;47.404;8.566;2023-02-19T08:28:35;97375.63;;;10.69;100.00
39243;BME280;29823;47.404;8.566;2023-02-19T08:31:06;97379.38;;;10.55;100.00
39243;BME280;29823;47.404;8.566;2023-02-19T08:33:37;97383.69;;;10.63;100.00
39243;BME280;29823;47.404;8.566;2023-02-19T08:36:06;97383.44;;;10.71;100.00
39243;BME280;29823;47.404;8.566;2023-02-19T08:38:35;97378.28;;;10.69;100.00
39243;BME280;29823;47.404;8.566;2023-02-19T08:41:04;97391.66;;;10.69;100.00
39243;BME280;29823;47.404;8.566;2023-02-19T08:43:33;97383.63;;;10.69;100.00
39243;BME280;29823;47.404;8.566;2023-02-19T08:46:02;97389.19;;;10.74;100.00
39243;BME280;29823;47.404;8.566;2023-02-19T08:48:32;97387.34;;;11.19;100.00
39243;BME280;29823;47.404;8.566;2023-02-19T08:51:02;97381.00;;;11.51;100.00
39243;BME280;29823;47.404;8.566;2023-02-19T08:53:33;97378.44;;;11.93;100.00
39243;BME280;29823;47.404;8.566;2023-02-19T08:56:03;97381.56;;;11.90;100.00
39243;BME280;29823;47.404;8.566;2023-02-19T08:58:31;97385.09;;;12.15;100.00
39243;BME280;29823;47.404;8.566;2023-02-19T09:00:59;97392.28;;;11.90;100.00
39243;BME280;29823;47.404;8.566;2023-02-19T09:03:27;97389.63;;;11.53;100.00
39243;BME280;29823;47.404;8.566;2023-02-19T09:05:57;97400.75;;;11.56;100.00
39243;BME280;29823;47.404;8.566;2023-02-19T09:08:25;97388.09;;;11.32;100.00
39243;BME280;29823;47.404;8.566;2023-02-19T09:10:57;97396.09;;;11.45;100.00
39243;BME280;29823;47.404;8.566;2023-02-19T09:13:24;97398.16;;;11.37;100.00
39243;BME280;29823;47.404;8.566;2023-02-19T09:15:52;97398.94;;;11.06;100.00
39243;BME280;29823;47.404;8.566;2023-02-19T09:18:23;97406.56;;;11.03;100.00
39243;BME280;29823;47.404;8.566;2023-02-19T09:20:51;97393.66;;;10.87;100.00
39243;BME280;29823;47.404;8.566;2023-02-19T09:23:20;97401.03;;;11.04;100.00
39243;BME280;29823;47.404;8.566;2023-02-19T09:25:55;97403.91;;;11.03;100.00
39243;BME280;29823;47.404;8.566;2023-02-19T09:28:24;97396.53;;;10.98;100.00
39243;BME280;29823;47.404;8.566;2023-02-19T09:30:52;97403.69;;;11.04;100.00
39243;BME280;29823;47.404;8.566;2023-02-19T09:33:19;97401.00;;;11.11;100.00
39243;BME280;29823;47.404;8.566;2023-02-19T09:35:47;97417.00;;;11.17;100.00
39243;BME280;29823;47.404;8.566;2023-02-19T09:38:15;97420.31;;;11.19;100.00
39243;BME280;29823;47.404;8.566;2023-02-19T09:40:45;97417.94;;;10.98;100.00
39243;BME280;29823;47.404;8.566;2023-02-19T09:43:19;97415.47;;;10.90;100.00
39243;BME280;29823;47.404;8.566;2023-02-19T09:46:00;97413.84;;;10.83;100.00
39243;BME280;29823;47.404;8.566;2023-02-19T09:48:29;97414.19;;;11.06;100.00
39243;BME280;29823;47.404;8.566;2023-02-19T09:50:58;97417.00;;;11.24;100.00
39243;BME280;29823;47.404;8.566;2023-02-19T09:53:32;97418.03;;;11.16;100.00
39243;BME280;29823;47.404;8.566;2023-02-19T09:56:03;97413.63;;;11.35;100.00
39243;BME280;29823;47.404;8.566;2023-02-19T09:58:33;97425.03;;;11.17;100.00
39243;BME280;29823;47.404;8.566;2023-02-19T10:01:03;97422.59;;;11.53;100.00
39243;BME280;29823;47.404;8.566;2023-02-19T10:03:35;97420.53;;;11.11;100.00
39243;BME280;29823;47.404;8.566;2023-02-19T10:06:10;97424.41;;;11.22;100.00
39243;BME280;29823;47.404;8.566;2023-02-19T10:08:41;97425.28;;;11.09;100.00
39243;BME280;29823;47.404;8.566;2023-02-19T10:11:11;97433.91;;;11.18;100.00
39243;BME280;29823;47.404;8.566;2023-02-19T10:13:41;97426.78;;;11.43;100.00
39243;BME280;29823;47.404;8.566;2023-02-19T10:16:12;97423.47;;;11.47;100.00
39243;BME280;29823;47.404;8.566;2023-02-19T10:18:44;97421.81;;;11.46;100.00
39243;BME280;29823;47.404;8.566;2023-02-19T10:21:15;97428.94;;;11.21;100.00
39243;BME280;29823;47.404;8.566;2023-02-19T10:23:46;97416.97;;;11.30;100.00
39243;BME280;29823;47.404;8.566;2023-02-19T10:26:18;97412.75;;;11.47;100.00
39243;BME280;29823;47.404;8.566;2023-02-19T10:28:46;97430.25;;;11.50;100.00
39243;BME280;29823;47.404;8.566;2023-02-19T10:31:16;97435.97;;;11.16;100.00
39243;BME280;29823;47.404;8.566;2023-02-19T10:33:48;97424.44;;;11.15;100.00
39243;BME280;29823;47.404;8.566;2023-02-19T10:36:24;97422.44;;;11.04;100.00
39243;BME280;29823;47.404;8.566;2023-02-19T10:38:57;97418.78;;;11.36;100.00
39243;BME280;29823;47.404;8.566;2023-02-19T10:41:27;97427.06;;;11.72;100.00
39243;BME280;29823;47.404;8.566;2023-02-19T10:44:03;97422.53;;;11.66;100.00
39243;BME280;29823;47.404;8.566;2023-02-19T10:46:34;97407.75;;;11.57;100.00
39243;BME280;29823;47.404;8.566;2023-02-19T10:49:05;97435.34;;;11.64;100.00
39243;BME280;29823;47.404;8.566;2023-02-19T10:51:35;97424.25;;;12.16;100.00
39243;BME280;29823;47.404;8.566;2023-02-19T10:54:08;97419.84;;;11.97;100.00
39243;BME280;29823;47.404;8.566;2023-02-19T10:56:43;97424.69;;;12.13;100.00
39243;BME280;29823;47.404;8.566;2023-02-19T10:59:23;97413.25;;;12.67;100.00
39243;BME280;29823;47.404;8.566;2023-02-19T11:01:55;97427.19;;;13.47;100.00
39243;BME280;29823;47.404;8.566;2023-02-19T11:04:25;97425.69;;;13.33;100.00
39243;BME280;29823;47.404;8.566;2023-02-19T11:06:54;97424.88;;;12.79;100.00
39243;BME280;29823;47.404;8.566;2023-02-19T11:09:25;97415.47;;;12.88;100.00
39243;BME280;29823;47.404;8.566;2023-02-19T11:11:56;97425.66;;;11.94;100.00
39243;BME280;29823;47.404;8.566;2023-02-19T11:14:25;97420.41;;;12.06;100.00
39243;BME280;29823;47.404;8.566;2023-02-19T11:16:56;97421.75;;;11.53;100.00
39243;BME280;29823;47.404;8.566;2023-02-19T11:19:28;97421.72;;;11.66;100.00
39243;BME280;29823;47.404;8.566;2023-02-19T11:21:59;97415.84;;;11.82;100.00
39243;BME280;29823;47.404;8.566;2023-02-19T11:24:33;97405.19;;;11.75;100.00
39243;BME280;29823;47.404;8.566;2023-02-19T11:27:06;97417.34;;;12.69;100.00
39243;BME280;29823;47.404;8.566;2023-02-19T11:29:41;97391.97;;;12.47;100.00
39243;BME280;29823;47.404;8.566;2023-02-19T11:32:27;97398.34;;;12.28;100.00
39243;BME280;29823;47.404;8.566;2023-02-19T11:35:16;97403.13;;;12.02;100.00
39243;BME280;29823;47.404;8.566;2023-02-19T11:37:55;97395.34;;;12.18;100.00
39243;BME280;29823;47.404;8.566;2023-02-19T11:40:36;97400.47;;;12.44;100.00
39243;BME280;29823;47.404;8.566;2023-02-19T11:43:15;97413.16;;;12.13;100.00
39243;BME280;29823;47.404;8.566;2023-02-19T11:45:54;97399.59;;;12.50;100.00
39243;BME280;29823;47.404;8.566;2023-02-19T11:48:40;97410.25;;;12.57;100.00
39243;BME280;29823;47.404;8.566;2023-02-19T11:51:26;97417.09;;;12.10;100.00
39243;BME280;29823;47.404;8.566;2023-02-19T11:54:07;97414.09;;;11.94;100.00
39243;BME280;29823;47.404;8.566;2023-02-19T11:56:39;97421.34;;;11.62;100.00
39243;BME280;29823;47.404;8.566;2023-02-19T11:59:18;97422.69;;;11.40;100.00
39243;BME280;29823;47.404;8.566;2023-02-19T12:05:15;97417.06;;;11.04;100.00
39243;BME280;29823;47.404;8.566;2023-02-19T12:08:24;97414.97;;;11.13;100.00
39243;BME280;29823;47.404;8.566;2023-02-19T12:11:09;97423.00;;;11.19;100.00
39243;BME280;29823;47.404;8.566;2023-02-19T12:13:50;97413.41;;;10.92;100.00
39243;BME280;29823;47.404;8.566;2023-02-19T12:16:30;97403.81;;;11.22;100.00
39243;BME280;29823;47.404;8.566;2023-02-19T12:19:26;97404.88;;;11.15;100.00
39243;BME280;29823;47.404;8.566;2023-02-19T12:22:10;97403.81;;;11.22;100.00
39243;BME280;29823;47.404;8.566;2023-02-19T12:28:11;97401.03;;;11.04;100.00
39243;BME280;29823;47.404;8.566;2023-02-19T12:30:46;97391.72;;;11.13;100.00
39243;BME280;29823;47.404;8.566;2023-02-19T12:33:33;97393.22;;;10.96;100.00
39243;BME280;29823;47.404;8.566;2023-02-19T12:36:15;97387.88;;;10.96;100.00
39243;BME280;29823;47.404;8.566;2023-02-19T12:38:50;97385.66;;;10.80;100.00
39243;BME280;29823;47.404;8.566;2023-02-19T12:41:31;97381.72;;;10.96;100.00
39243;BME280;29823;47.404;8.566;2023-02-19T12:44:07;97383.25;;;11.16;100.00
39243;BME280;29823;47.404;8.566;2023-02-19T12:46:38;97388.91;;;10.95;100.00
39243;BME280;29823;47.404;8.566;2023-02-19T12:49:10;97390.13;;;10.99;100.00
39243;BME280;29823;47.404;8.566;2023-02-19T12:51:43;97386.97;;;11.15;100.00
39243;BME280;29823;47.404;8.566;2023-02-19T12:54:12;97389.38;;;11.23;100.00
39243;BME280;29823;47.404;8.566;2023-02-19T12:56:46;97379.06;;;10.89;100.00
39243;BME280;29823;47.404;8.566;2023-02-19T12:59:21;97379.69;;;10.91;100.00
39243;BME280;29823;47.404;8.566;2023-02-19T13:01:55;97382.50;;;10.96;100.00
39243;BME280;29823;47.404;8.566;2023-02-19T13:04:31;97388.88;;;11.02;100.00
39243;BME280;29823;47.404;8.566;2023-02-19T13:07:04;97398.16;;;10.93;100.00
39243;BME280;29823;47.404;8.566;2023-02-19T13:09:37;97388.78;;;10.71;100.00
39243;BME280;29823;47.404;8.566;2023-02-19T13:12:10;97398.22;;;10.86;100.00
39243;BME280;29823;47.404;8.566;2023-02-19T13:14:42;97413.88;;;10.76;100.00
39243;BME280;29823;47.404;8.566;2023-02-19T13:17:20;97409.13;;;10.78;100.00
39243;BME280;29823;47.404;8.566;2023-02-19T13:19:55;97413.03;;;10.82;100.00
39243;BME280;29823;47.404;8.566;2023-02-19T13:22:31;97402.94;;;10.84;100.00
39243;BME280;29823;47.404;8.566;2023-02-19T13:25:19;97413.06;;;10.69;100.00
39243;BME280;29823;47.404;8.566;2023-02-19T13:28:02;97403.59;;;10.73;100.00